KGLS/GLS METAR and TAF weather

Enter ICAO airport designator
Station Type Date Time Source
KGLS METAR 2021/08/05 02:52 UTC NOAA

KGLS 050252Z AUTO 00000KT 10SM FEW090 28/24 A3000 RMK AO2 SLP157 T02780239 53012


Station Type Date Time Source
KGLS Decoded METAR 2021/08/05 02:52 UTC NOAA

SCHOLES FIELD, TX, United States (KGLS) 29-16N 094-52W 6M
Aug 04, 2021 - 10:52 PM EDT / 2021.08.05 0252 UTC
Wind: Calm:0
Visibility: 10 mile(s):0
Sky conditions: mostly clear
Temperature: 82.0 F (27.8 C)
Dew Point: 75.0 F (23.9 C)
Relative Humidity: 79%
Pressure (altimeter): 30 in. Hg (1015 hPa)
Pressure tendency: 0.04 inches (1.2 hPa) higher than three hours ago
ob: KGLS 050252Z AUTO 00000KT 10SM FEW090 28/24 A3000 RMK AO2 SLP157 T02780239 53012
cycle: 3

Station Type Date Time Source
KGLS TAF 2021/08/04 20:43 UTC NOAA

TAF
AMD KGLS 041938Z 0420/0518 VRB05KT P6SM FEW045 SCT060 SCT100
FM042200 14006KT P6SM SCT025 BKN070
FM051200 10010KT P6SM FEW035 SCT100

Example: see airport list